sensor_id;sensor_type;location;lat;lon;timestamp;P1;durP1;ratioP1;P2;durP2;ratioP2
16579;SDS011;8402;51.466;6.806;2023-03-16T00:02:26;8.43;;;2.17;;
16579;SDS011;8402;51.466;6.806;2023-03-16T00:04:56;6.43;;;2.40;;
16579;SDS011;8402;51.466;6.806;2023-03-16T00:07:27;5.83;;;1.90;;
16579;SDS011;8402;51.466;6.806;2023-03-16T00:10:00;10.77;;;1.90;;
16579;SDS011;8402;51.466;6.806;2023-03-16T00:12:30;5.00;;;1.83;;
16579;SDS011;8402;51.466;6.806;2023-03-16T00:15:00;3.27;;;1.70;;
16579;SDS011;8402;51.466;6.806;2023-03-16T00:17:30;2.63;;;1.27;;
16579;SDS011;8402;51.466;6.806;2023-03-16T00:20:00;3.03;;;1.67;;
16579;SDS011;8402;51.466;6.806;2023-03-16T00:22:32;4.20;;;1.70;;
16579;SDS011;8402;51.466;6.806;2023-03-16T00:25:05;9.10;;;2.30;;
16579;SDS011;8402;51.466;6.806;2023-03-16T00:27:36;3.17;;;1.70;;
16579;SDS011;8402;51.466;6.806;2023-03-16T00:30:07;5.33;;;1.70;;
16579;SDS011;8402;51.466;6.806;2023-03-16T00:32:38;3.73;;;1.40;;
16579;SDS011;8402;51.466;6.806;2023-03-16T00:35:08;4.47;;;1.70;;
16579;SDS011;8402;51.466;6.806;2023-03-16T00:37:38;2.93;;;1.70;;
16579;SDS011;8402;51.466;6.806;2023-03-16T00:40:13;3.20;;;1.40;;
16579;SDS011;8402;51.466;6.806;2023-03-16T00:42:43;2.97;;;1.47;;
16579;SDS011;8402;51.466;6.806;2023-03-16T00:45:13;4.07;;;1.43;;
16579;SDS011;8402;51.466;6.806;2023-03-16T00:47:43;7.47;;;2.00;;
16579;SDS011;8402;51.466;6.806;2023-03-16T00:50:13;3.43;;;1.27;;
16579;SDS011;8402;51.466;6.806;2023-03-16T00:52:43;4.50;;;1.60;;
16579;SDS011;8402;51.466;6.806;2023-03-16T00:55:16;8.60;;;1.67;;
16579;SDS011;8402;51.466;6.806;2023-03-16T00:57:45;2.53;;;1.33;;
16579;SDS011;8402;51.466;6.806;2023-03-16T01:00:16;3.33;;;1.53;;
16579;SDS011;8402;51.466;6.806;2023-03-16T01:02:47;4.73;;;1.20;;
16579;SDS011;8402;51.466;6.806;2023-03-16T01:05:17;2.73;;;1.40;;
16579;SDS011;8402;51.466;6.806;2023-03-16T01:07:48;4.33;;;1.30;;
16579;SDS011;8402;51.466;6.806;2023-03-16T01:10:20;4.30;;;1.47;;
16579;SDS011;8402;51.466;6.806;2023-03-16T01:12:50;2.00;;;1.30;;
16579;SDS011;8402;51.466;6.806;2023-03-16T01:15:21;4.03;;;1.30;;
16579;SDS011;8402;51.466;6.806;2023-03-16T01:17:51;6.80;;;1.50;;
16579;SDS011;8402;51.466;6.806;2023-03-16T01:20:21;4.93;;;1.40;;
16579;SDS011;8402;51.466;6.806;2023-03-16T01:22:52;3.40;;;1.60;;
16579;SDS011;8402;51.466;6.806;2023-03-16T01:25:24;3.70;;;1.30;;
16579;SDS011;8402;51.466;6.806;2023-03-16T01:27:55;3.10;;;1.50;;
16579;SDS011;8402;51.466;6.806;2023-03-16T01:30:25;5.87;;;1.67;;
16579;SDS011;8402;51.466;6.806;2023-03-16T01:32:55;2.03;;;1.20;;
16579;SDS011;8402;51.466;6.806;2023-03-16T01:35:25;3.63;;;1.53;;
16579;SDS011;8402;51.466;6.806;2023-03-16T01:37:54;2.63;;;1.10;;
16579;SDS011;8402;51.466;6.806;2023-03-16T01:40:27;6.43;;;1.60;;
16579;SDS011;8402;51.466;6.806;2023-03-16T01:43:01;10.03;;;1.40;;
16579;SDS011;8402;51.466;6.806;2023-03-16T01:48:45;4.43;;;1.67;;
16579;SDS011;8402;51.466;6.806;2023-03-16T01:51:20;2.73;;;1.33;;
16579;SDS011;8402;51.466;6.806;2023-03-16T01:53:55;2.77;;;1.37;;
16579;SDS011;8402;51.466;6.806;2023-03-16T01:56:32;3.50;;;1.50;;
16579;SDS011;8402;51.466;6.806;2023-03-16T01:59:08;3.67;;;1.27;;
16579;SDS011;8402;51.466;6.806;2023-03-16T02:01:42;7.37;;;1.70;;
16579;SDS011;8402;51.466;6.806;2023-03-16T02:04:16;3.90;;;1.40;;
16579;SDS011;8402;51.466;6.806;2023-03-16T02:06:53;3.60;;;1.63;;
16579;SDS011;8402;51.466;6.806;2023-03-16T02:09:24;4.07;;;1.07;;
16579;SDS011;8402;51.466;6.806;2023-03-16T02:11:59;3.50;;;1.30;;
16579;SDS011;8402;51.466;6.806;2023-03-16T02:14:29;2.57;;;0.63;;
16579;SDS011;8402;51.466;6.806;2023-03-16T02:16:59;3.47;;;1.47;;
16579;SDS011;8402;51.466;6.806;2023-03-16T02:19:33;2.77;;;1.23;;
16579;SDS011;8402;51.466;6.806;2023-03-16T02:22:10;4.00;;;1.57;;
16579;SDS011;8402;51.466;6.806;2023-03-16T02:24:40;2.87;;;1.23;;
16579;SDS011;8402;51.466;6.806;2023-03-16T02:27:15;3.70;;;1.33;;
16579;SDS011;8402;51.466;6.806;2023-03-16T02:29:59;3.43;;;1.50;;
16579;SDS011;8402;51.466;6.806;2023-03-16T02:32:34;2.43;;;1.13;;
16579;SDS011;8402;51.466;6.806;2023-03-16T02:35:07;3.80;;;1.47;;
16579;SDS011;8402;51.466;6.806;2023-03-16T02:37:38;3.20;;;1.70;;
16579;SDS011;8402;51.466;6.806;2023-03-16T02:40:15;3.57;;;1.30;;
16579;SDS011;8402;51.466;6.806;2023-03-16T02:42:52;3.23;;;1.23;;
16579;SDS011;8402;51.466;6.806;2023-03-16T02:45:28;2.93;;;1.30;;
16579;SDS011;8402;51.466;6.806;2023-03-16T02:48:02;3.23;;;1.40;;
16579;SDS011;8402;51.466;6.806;2023-03-16T02:50:43;3.57;;;1.37;;
16579;SDS011;8402;51.466;6.806;2023-03-16T02:53:15;2.47;;;1.30;;
16579;SDS011;8402;51.466;6.806;2023-03-16T02:55:45;2.60;;;1.30;;
16579;SDS011;8402;51.466;6.806;2023-03-16T02:58:16;2.70;;;1.30;;
16579;SDS011;8402;51.466;6.806;2023-03-16T03:00:50;3.07;;;1.33;;
16579;SDS011;8402;51.466;6.806;2023-03-16T03:03:20;2.83;;;1.13;;
16579;SDS011;8402;51.466;6.806;2023-03-16T03:05:51;3.87;;;1.40;;
16579;SDS011;8402;51.466;6.806;2023-03-16T03:08:21;2.30;;;1.17;;
16579;SDS011;8402;51.466;6.806;2023-03-16T03:10:50;2.23;;;1.53;;
16579;SDS011;8402;51.466;6.806;2023-03-16T03:13:20;3.93;;;1.23;;
16579;SDS011;8402;51.466;6.806;2023-03-16T03:15:53;1.97;;;1.43;;
16579;SDS011;8402;51.466;6.806;2023-03-16T03:18:23;3.53;;;1.40;;
16579;SDS011;8402;51.466;6.806;2023-03-16T03:20:53;4.17;;;1.63;;
16579;SDS011;8402;51.466;6.806;2023-03-16T03:23:23;5.97;;;1.60;;
16579;SDS011;8402;51.466;6.806;2023-03-16T03:25:55;2.43;;;1.47;;
16579;SDS011;8402;51.466;6.806;2023-03-16T03:28:26;2.43;;;0.90;;
16579;SDS011;8402;51.466;6.806;2023-03-16T03:30:59;4.07;;;1.50;;
16579;SDS011;8402;51.466;6.806;2023-03-16T03:33:29;2.63;;;1.47;;
16579;SDS011;8402;51.466;6.806;2023-03-16T03:35:59;2.20;;;1.40;;
16579;SDS011;8402;51.466;6.806;2023-03-16T03:38:29;2.53;;;1.20;;
16579;SDS011;8402;51.466;6.806;2023-03-16T03:40:59;1.63;;;1.10;;
16579;SDS011;8402;51.466;6.806;2023-03-16T03:43:29;4.07;;;1.60;;
16579;SDS011;8402;51.466;6.806;2023-03-16T03:46:01;2.87;;;1.20;;
16579;SDS011;8402;51.466;6.806;2023-03-16T03:48:33;2.53;;;1.00;;
16579;SDS011;8402;51.466;6.806;2023-03-16T03:51:03;4.27;;;1.57;;
16579;SDS011;8402;51.466;6.806;2023-03-16T03:53:33;3.57;;;1.80;;
16579;SDS011;8402;51.466;6.806;2023-03-16T03:56:03;2.90;;;1.70;;
16579;SDS011;8402;51.466;6.806;2023-03-16T03:58:34;3.80;;;1.67;;
16579;SDS011;8402;51.466;6.806;2023-03-16T04:01:07;2.27;;;1.30;;
16579;SDS011;8402;51.466;6.806;2023-03-16T04:03:37;3.43;;;1.70;;
16579;SDS011;8402;51.466;6.806;2023-03-16T04:06:10;1.97;;;1.20;;
16579;SDS011;8402;51.466;6.806;2023-03-16T04:08:40;3.10;;;1.40;;
16579;SDS011;8402;51.466;6.806;2023-03-16T04:11:10;4.63;;;1.67;;
16579;SDS011;8402;51.466;6.806;2023-03-16T04:13:40;4.23;;;1.40;;
16579;SDS011;8402;51.466;6.806;2023-03-16T04:16:12;2.43;;;1.23;;
16579;SDS011;8402;51.466;6.806;2023-03-16T04:18:43;2.03;;;1.13;;
16579;SDS011;8402;51.466;6.806;2023-03-16T04:21:14;2.93;;;1.67;;
16579;SDS011;8402;51.466;6.806;2023-03-16T04:23:45;4.13;;;1.70;;
16579;SDS011;8402;51.466;6.806;2023-03-16T04:26:15;3.73;;;1.37;;
16579;SDS011;8402;51.466;6.806;2023-03-16T04:28:45;2.87;;;1.57;;
16579;SDS011;8402;51.466;6.806;2023-03-16T04:31:18;5.40;;;1.60;;
16579;SDS011;8402;51.466;6.806;2023-03-16T04:33:48;2.87;;;1.37;;
16579;SDS011;8402;51.466;6.806;2023-03-16T04:36:23;3.37;;;1.70;;
16579;SDS011;8402;51.466;6.806;2023-03-16T04:38:52;3.60;;;1.53;;
16579;SDS011;8402;51.466;6.806;2023-03-16T04:41:22;5.20;;;1.60;;
16579;SDS011;8402;51.466;6.806;2023-03-16T04:43:54;5.93;;;1.63;;
16579;SDS011;8402;51.466;6.806;2023-03-16T04:46:28;4.07;;;1.27;;
16579;SDS011;8402;51.466;6.806;2023-03-16T04:48:58;6.43;;;2.03;;
16579;SDS011;8402;51.466;6.806;2023-03-16T04:51:28;4.73;;;1.87;;
16579;SDS011;8402;51.466;6.806;2023-03-16T04:53:58;3.30;;;1.90;;
16579;SDS011;8402;51.466;6.806;2023-03-16T04:56:31;5.70;;;2.00;;
16579;SDS011;8402;51.466;6.806;2023-03-16T04:59:01;3.80;;;1.40;;
16579;SDS011;8402;51.466;6.806;2023-03-16T05:01:33;3.97;;;1.70;;
16579;SDS011;8402;51.466;6.806;2023-03-16T05:04:04;3.20;;;1.60;;
16579;SDS011;8402;51.466;6.806;2023-03-16T05:06:35;2.97;;;1.27;;
16579;SDS011;8402;51.466;6.806;2023-03-16T05:09:05;4.73;;;1.80;;
16579;SDS011;8402;51.466;6.806;2023-03-16T05:11:35;5.67;;;1.63;;
16579;SDS011;8402;51.466;6.806;2023-03-16T05:14:05;3.43;;;1.80;;
16579;SDS011;8402;51.466;6.806;2023-03-16T05:16:38;4.83;;;2.10;;
16579;SDS011;8402;51.466;6.806;2023-03-16T05:19:07;5.27;;;2.23;;
16579;SDS011;8402;51.466;6.806;2023-03-16T05:21:37;3.90;;;2.00;;
16579;SDS011;8402;51.466;6.806;2023-03-16T05:24:07;3.57;;;1.50;;
16579;SDS011;8402;51.466;6.806;2023-03-16T05:26:37;4.23;;;1.97;;
16579;SDS011;8402;51.466;6.806;2023-03-16T05:29:07;4.20;;;2.00;;
16579;SDS011;8402;51.466;6.806;2023-03-16T05:31:39;5.53;;;1.93;;
16579;SDS011;8402;51.466;6.806;2023-03-16T05:34:12;3.57;;;2.20;;
16579;SDS011;8402;51.466;6.806;2023-03-16T05:36:42;3.47;;;1.47;;
16579;SDS011;8402;51.466;6.806;2023-03-16T05:39:13;3.97;;;2.10;;
16579;SDS011;8402;51.466;6.806;2023-03-16T05:41:43;3.23;;;2.13;;
16579;SDS011;8402;51.466;6.806;2023-03-16T05:44:13;5.93;;;2.43;;
16579;SDS011;8402;51.466;6.806;2023-03-16T05:46:45;5.00;;;2.33;;
16579;SDS011;8402;51.466;6.806;2023-03-16T05:49:15;5.37;;;1.70;;
16579;SDS011;8402;51.466;6.806;2023-03-16T05:51:45;6.50;;;2.63;;
16579;SDS011;8402;51.466;6.806;2023-03-16T05:54:16;8.67;;;2.60;;
16579;SDS011;8402;51.466;6.806;2023-03-16T05:56:45;5.83;;;2.67;;
16579;SDS011;8402;51.466;6.806;2023-03-16T05:59:15;3.40;;;2.30;;
16579;SDS011;8402;51.466;6.806;2023-03-16T06:01:48;3.47;;;1.83;;
16579;SDS011;8402;51.466;6.806;2023-03-16T06:04:18;6.40;;;2.77;;
16579;SDS011;8402;51.466;6.806;2023-03-16T06:06:48;8.03;;;3.27;;
16579;SDS011;8402;51.466;6.806;2023-03-16T06:09:22;7.03;;;3.10;;
16579;SDS011;8402;51.466;6.806;2023-03-16T06:11:52;4.83;;;2.07;;
16579;SDS011;8402;51.466;6.806;2023-03-16T06:14:25;5.53;;;2.23;;
16579;SDS011;8402;51.466;6.806;2023-03-16T06:16:58;4.37;;;2.13;;
16579;SDS011;8402;51.466;6.806;2023-03-16T06:19:28;5.33;;;2.30;;
16579;SDS011;8402;51.466;6.806;2023-03-16T06:21:58;5.17;;;2.70;;
16579;SDS011;8402;51.466;6.806;2023-03-16T06:24:28;10.40;;;2.90;;
16579;SDS011;8402;51.466;6.806;2023-03-16T06:26:58;5.17;;;2.97;;
16579;SDS011;8402;51.466;6.806;2023-03-16T06:29:27;10.23;;;3.20;;
16579;SDS011;8402;51.466;6.806;2023-03-16T06:32:00;5.00;;;2.43;;
16579;SDS011;8402;51.466;6.806;2023-03-16T06:34:30;4.03;;;2.17;;
16579;SDS011;8402;51.466;6.806;2023-03-16T06:37:03;5.07;;;2.80;;
16579;SDS011;8402;51.466;6.806;2023-03-16T06:39:33;4.03;;;2.43;;
16579;SDS011;8402;51.466;6.806;2023-03-16T06:42:03;6.77;;;3.13;;
16579;SDS011;8402;51.466;6.806;2023-03-16T06:44:33;10.40;;;3.30;;
16579;SDS011;8402;51.466;6.806;2023-03-16T06:47:06;5.17;;;3.03;;
16579;SDS011;8402;51.466;6.806;2023-03-16T06:49:37;5.47;;;2.93;;
16579;SDS011;8402;51.466;6.806;2023-03-16T06:52:07;8.23;;;3.07;;
16579;SDS011;8402;51.466;6.806;2023-03-16T06:54:39;8.17;;;3.03;;
16579;SDS011;8402;51.466;6.806;2023-03-16T06:57:09;5.57;;;3.07;;
16579;SDS011;8402;51.466;6.806;2023-03-16T06:59:40;8.87;;;3.07;;
16579;SDS011;8402;51.466;6.806;2023-03-16T07:02:13;5.23;;;2.63;;
16579;SDS011;8402;51.466;6.806;2023-03-16T07:04:43;7.70;;;3.10;;
16579;SDS011;8402;51.466;6.806;2023-03-16T07:07:13;6.07;;;2.77;;
16579;SDS011;8402;51.466;6.806;2023-03-16T07:09:44;7.50;;;2.60;;
16579;SDS011;8402;51.466;6.806;2023-03-16T07:12:14;6.90;;;3.30;;
16579;SDS011;8402;51.466;6.806;2023-03-16T07:14:44;4.80;;;2.40;;
16579;SDS011;8402;51.466;6.806;2023-03-16T07:17:21;8.10;;;2.57;;
16579;SDS011;8402;51.466;6.806;2023-03-16T07:19:51;7.17;;;2.70;;
16579;SDS011;8402;51.466;6.806;2023-03-16T07:22:21;6.00;;;2.83;;
16579;SDS011;8402;51.466;6.806;2023-03-16T07:24:51;4.43;;;2.43;;
16579;SDS011;8402;51.466;6.806;2023-03-16T07:27:22;5.73;;;2.70;;
16579;SDS011;8402;51.466;6.806;2023-03-16T07:29:53;2.87;;;1.63;;
16579;SDS011;8402;51.466;6.806;2023-03-16T07:32:25;5.73;;;2.50;;
16579;SDS011;8402;51.466;6.806;2023-03-16T07:34:55;5.00;;;2.60;;
16579;SDS011;8402;51.466;6.806;2023-03-16T07:37:27;9.23;;;2.67;;
16579;SDS011;8402;51.466;6.806;2023-03-16T07:39:57;7.27;;;3.00;;
16579;SDS011;8402;51.466;6.806;2023-03-16T07:42:27;2.97;;;1.30;;
16579;SDS011;8402;51.466;6.806;2023-03-16T07:45:01;5.90;;;3.27;;
16579;SDS011;8402;51.466;6.806;2023-03-16T07:47:34;5.97;;;2.53;;
16579;SDS011;8402;51.466;6.806;2023-03-16T07:50:05;5.43;;;2.07;;
16579;SDS011;8402;51.466;6.806;2023-03-16T07:52:36;3.07;;;1.70;;
16579;SDS011;8402;51.466;6.806;2023-03-16T07:55:07;3.47;;;1.23;;
16579;SDS011;8402;51.466;6.806;2023-03-16T07:57:37;4.43;;;2.70;;
16579;SDS011;8402;51.466;6.806;2023-03-16T08:00:08;4.40;;;2.80;;
16579;SDS011;8402;51.466;6.806;2023-03-16T08:02:42;5.23;;;2.73;;
16579;SDS011;8402;51.466;6.806;2023-03-16T08:05:12;3.30;;;1.83;;
16579;SDS011;8402;51.466;6.806;2023-03-16T08:07:42;6.03;;;2.60;;
16579;SDS011;8402;51.466;6.806;2023-03-16T08:10:12;5.63;;;2.60;;
16579;SDS011;8402;51.466;6.806;2023-03-16T08:12:45;6.80;;;2.43;;
16579;SDS011;8402;51.466;6.806;2023-03-16T08:15:15;4.83;;;2.57;;
16579;SDS011;8402;51.466;6.806;2023-03-16T08:17:47;5.20;;;2.57;;
16579;SDS011;8402;51.466;6.806;2023-03-16T08:20:18;7.50;;;2.90;;
16579;SDS011;8402;51.466;6.806;2023-03-16T08:22:48;7.30;;;2.67;;
16579;SDS011;8402;51.466;6.806;2023-03-16T08:25:18;7.37;;;2.93;;
16579;SDS011;8402;51.466;6.806;2023-03-16T08:27:48;5.83;;;2.90;;
16579;SDS011;8402;51.466;6.806;2023-03-16T08:30:18;6.47;;;2.77;;
16579;SDS011;8402;51.466;6.806;2023-03-16T08:32:51;7.93;;;2.60;;
16579;SDS011;8402;51.466;6.806;2023-03-16T08:35:21;3.97;;;2.50;;
16579;SDS011;8402;51.466;6.806;2023-03-16T08:37:51;6.60;;;2.77;;
16579;SDS011;8402;51.466;6.806;2023-03-16T08:40:21;4.80;;;2.40;;
16579;SDS011;8402;51.466;6.806;2023-03-16T08:42:55;5.40;;;2.50;;
16579;SDS011;8402;51.466;6.806;2023-03-16T08:45:25;7.83;;;2.80;;
16579;SDS011;8402;51.466;6.806;2023-03-16T08:47:57;5.40;;;2.60;;
16579;SDS011;8402;51.466;6.806;2023-03-16T08:50:27;5.03;;;2.17;;
16579;SDS011;8402;51.466;6.806;2023-03-16T08:52:57;4.73;;;2.57;;
16579;SDS011;8402;51.466;6.806;2023-03-16T08:55:27;7.73;;;2.77;;
16579;SDS011;8402;51.466;6.806;2023-03-16T08:57:57;4.20;;;2.80;;
16579;SDS011;8402;51.466;6.806;2023-03-16T09:00:27;5.33;;;2.83;;
16579;SDS011;8402;51.466;6.806;2023-03-16T09:02:59;6.10;;;2.83;;
16579;SDS011;8402;51.466;6.806;2023-03-16T09:05:30;6.80;;;2.80;;
16579;SDS011;8402;51.466;6.806;2023-03-16T09:08:00;6.00;;;2.80;;
16579;SDS011;8402;51.466;6.806;2023-03-16T09:10:31;5.83;;;2.40;;
16579;SDS011;8402;51.466;6.806;2023-03-16T09:13:02;4.97;;;2.33;;
16579;SDS011;8402;51.466;6.806;2023-03-16T09:15:31;10.70;;;3.00;;
16579;SDS011;8402;51.466;6.806;2023-03-16T09:18:04;6.37;;;2.80;;
16579;SDS011;8402;51.466;6.806;2023-03-16T09:20:34;6.53;;;2.57;;
16579;SDS011;8402;51.466;6.806;2023-03-16T09:23:04;6.60;;;3.10;;
16579;SDS011;8402;51.466;6.806;2023-03-16T09:25:34;7.80;;;2.90;;
16579;SDS011;8402;51.466;6.806;2023-03-16T09:28:04;5.30;;;2.73;;
16579;SDS011;8402;51.466;6.806;2023-03-16T09:30:37;5.67;;;2.40;;
16579;SDS011;8402;51.466;6.806;2023-03-16T09:33:10;7.87;;;3.00;;
16579;SDS011;8402;51.466;6.806;2023-03-16T09:35:40;8.80;;;3.00;;
16579;SDS011;8402;51.466;6.806;2023-03-16T09:38:10;6.60;;;2.90;;
16579;SDS011;8402;51.466;6.806;2023-03-16T09:40:40;5.70;;;3.00;;
16579;SDS011;8402;51.466;6.806;2023-03-16T09:43:16;6.90;;;2.70;;
16579;SDS011;8402;51.466;6.806;2023-03-16T09:45:57;5.83;;;2.50;;
16579;SDS011;8402;51.466;6.806;2023-03-16T09:48:34;6.10;;;2.97;;
16579;SDS011;8402;51.466;6.806;2023-03-16T09:51:07;7.27;;;2.47;;
16579;SDS011;8402;51.466;6.806;2023-03-16T09:53:47;5.70;;;2.50;;
16579;SDS011;8402;51.466;6.806;2023-03-16T09:56:25;7.17;;;3.03;;
16579;SDS011;8402;51.466;6.806;2023-03-16T09:58:58;4.33;;;2.50;;
16579;SDS011;8402;51.466;6.806;2023-03-16T10:01:32;6.23;;;2.90;;
16579;SDS011;8402;51.466;6.806;2023-03-16T10:04:13;4.47;;;2.53;;
16579;SDS011;8402;51.466;6.806;2023-03-16T10:06:51;5.77;;;3.00;;
16579;SDS011;8402;51.466;6.806;2023-03-16T10:09:33;6.67;;;3.10;;
16579;SDS011;8402;51.466;6.806;2023-03-16T10:12:06;10.10;;;3.70;;
16579;SDS011;8402;51.466;6.806;2023-03-16T10:14:40;4.57;;;3.10;;
16579;SDS011;8402;51.466;6.806;2023-03-16T10:17:16;6.30;;;3.13;;
16579;SDS011;8402;51.466;6.806;2023-03-16T10:19:53;6.63;;;2.77;;
16579;SDS011;8402;51.466;6.806;2023-03-16T10:22:28;4.73;;;2.90;;
16579;SDS011;8402;51.466;6.806;2023-03-16T10:25:02;5.07;;;3.13;;
16579;SDS011;8402;51.466;6.806;2023-03-16T10:27:41;8.27;;;2.93;;
16579;SDS011;8402;51.466;6.806;2023-03-16T10:30:17;5.93;;;3.20;;
16579;SDS011;8402;51.466;6.806;2023-03-16T10:32:51;10.27;;;4.53;;
16579;SDS011;8402;51.466;6.806;2023-03-16T10:35:29;7.97;;;4.03;;
16579;SDS011;8402;51.466;6.806;2023-03-16T10:38:23;10.13;;;3.70;;
16579;SDS011;8402;51.466;6.806;2023-03-16T10:40:56;6.57;;;3.23;;
16579;SDS011;8402;51.466;6.806;2023-03-16T10:43:28;8.80;;;3.87;;
16579;SDS011;8402;51.466;6.806;2023-03-16T10:45:59;6.50;;;3.93;;
16579;SDS011;8402;51.466;6.806;2023-03-16T10:48:31;5.40;;;3.20;;
16579;SDS011;8402;51.466;6.806;2023-03-16T10:51:05;5.83;;;3.17;;
16579;SDS011;8402;51.466;6.806;2023-03-16T10:53:41;8.47;;;3.47;;
16579;SDS011;8402;51.466;6.806;2023-03-16T10:56:18;9.33;;;3.70;;
16579;SDS011;8402;51.466;6.806;2023-03-16T10:58:50;7.53;;;3.20;;
16579;SDS011;8402;51.466;6.806;2023-03-16T11:01:22;5.83;;;3.27;;
16579;SDS011;8402;51.466;6.806;2023-03-16T11:03:54;5.83;;;3.80;;
16579;SDS011;8402;51.466;6.806;2023-03-16T11:06:30;9.10;;;3.63;;
16579;SDS011;8402;51.466;6.806;2023-03-16T11:09:03;6.37;;;3.43;;
16579;SDS011;8402;51.466;6.806;2023-03-16T11:11:35;6.87;;;3.97;;
16579;SDS011;8402;51.466;6.806;2023-03-16T11:14:10;7.23;;;3.07;;
16579;SDS011;8402;51.466;6.806;2023-03-16T11:16:42;8.37;;;3.17;;
16579;SDS011;8402;51.466;6.806;2023-03-16T11:19:17;6.33;;;2.83;;
16579;SDS011;8402;51.466;6.806;2023-03-16T11:21:56;5.87;;;2.70;;
16579;SDS011;8402;51.466;6.806;2023-03-16T11:24:33;6.80;;;3.30;;
16579;SDS011;8402;51.466;6.806;2023-03-16T11:27:16;4.13;;;2.40;;
16579;SDS011;8402;51.466;6.806;2023-03-16T11:30:01;3.50;;;2.20;;
16579;SDS011;8402;51.466;6.806;2023-03-16T11:32:36;5.73;;;2.33;;
16579;SDS011;8402;51.466;6.806;2023-03-16T11:35:14;7.97;;;2.27;;
16579;SDS011;8402;51.466;6.806;2023-03-16T11:37:52;5.33;;;2.20;;
16579;SDS011;8402;51.466;6.806;2023-03-16T11:40:39;3.80;;;2.40;;
16579;SDS011;8402;51.466;6.806;2023-03-16T11:43:19;4.47;;;2.10;;
16579;SDS011;8402;51.466;6.806;2023-03-16T11:46:07;4.00;;;2.40;;
16579;SDS011;8402;51.466;6.806;2023-03-16T11:48:41;4.13;;;2.20;;
16579;SDS011;8402;51.466;6.806;2023-03-16T11:51:24;3.07;;;2.03;;
16579;SDS011;8402;51.466;6.806;2023-03-16T11:54:13;5.27;;;2.47;;
16579;SDS011;8402;51.466;6.806;2023-03-16T11:56:59;5.83;;;2.37;;
16579;SDS011;8402;51.466;6.806;2023-03-16T11:59:52;3.90;;;2.27;;
16579;SDS011;8402;51.466;6.806;2023-03-16T12:02:33;7.10;;;2.30;;
16579;SDS011;8402;51.466;6.806;2023-03-16T12:05:19;5.37;;;2.40;;
16579;SDS011;8402;51.466;6.806;2023-03-16T12:07:59;3.67;;;2.40;;
16579;SDS011;8402;51.466;6.806;2023-03-16T12:10:46;2.97;;;1.80;;
16579;SDS011;8402;51.466;6.806;2023-03-16T12:13:35;3.53;;;2.07;;
16579;SDS011;8402;51.466;6.806;2023-03-16T12:16:26;3.93;;;1.97;;
16579;SDS011;8402;51.466;6.806;2023-03-16T12:19:15;5.13;;;2.17;;
16579;SDS011;8402;51.466;6.806;2023-03-16T12:21:56;6.10;;;2.70;;
16579;SDS011;8402;51.466;6.806;2023-03-16T12:24:34;10.23;;;4.57;;
16579;SDS011;8402;51.466;6.806;2023-03-16T12:27:13;5.40;;;3.13;;
16579;SDS011;8402;51.466;6.806;2023-03-16T12:29:55;4.63;;;2.30;;
16579;SDS011;8402;51.466;6.806;2023-03-16T12:32:40;4.33;;;2.00;;
16579;SDS011;8402;51.466;6.806;2023-03-16T12:35:20;11.50;;;5.03;;
16579;SDS011;8402;51.466;6.806;2023-03-16T12:38:02;13.47;;;5.10;;
16579;SDS011;8402;51.466;6.806;2023-03-16T12:40:45;22.60;;;7.00;;
16579;SDS011;8402;51.466;6.806;2023-03-16T12:43:30;27.50;;;7.77;;
16579;SDS011;8402;51.466;6.806;2023-03-16T12:46:10;21.43;;;6.23;;
16579;SDS011;8402;51.466;6.806;2023-03-16T12:48:45;16.43;;;5.57;;
16579;SDS011;8402;51.466;6.806;2023-03-16T12:51:17;17.03;;;6.20;;
16579;SDS011;8402;51.466;6.806;2023-03-16T12:53:52;14.93;;;5.33;;
16579;SDS011;8402;51.466;6.806;2023-03-16T12:56:26;14.17;;;5.07;;
16579;SDS011;8402;51.466;6.806;2023-03-16T12:59:01;9.87;;;4.07;;
16579;SDS011;8402;51.466;6.806;2023-03-16T13:01:40;8.37;;;3.23;;
16579;SDS011;8402;51.466;6.806;2023-03-16T13:04:15;6.03;;;3.17;;
16579;SDS011;8402;51.466;6.806;2023-03-16T13:06:49;5.80;;;2.83;;
16579;SDS011;8402;51.466;6.806;2023-03-16T13:09:22;3.57;;;1.80;;
16579;SDS011;8402;51.466;6.806;2023-03-16T13:11:57;4.13;;;2.17;;
16579;SDS011;8402;51.466;6.806;2023-03-16T13:14:38;4.83;;;2.60;;
16579;SDS011;8402;51.466;6.806;2023-03-16T13:20:04;3.07;;;1.47;;
16579;SDS011;8402;51.466;6.806;2023-03-16T13:23:07;5.27;;;1.93;;
16579;SDS011;8402;51.466;6.806;2023-03-16T13:25:57;3.87;;;1.80;;
16579;SDS011;8402;51.466;6.806;2023-03-16T13:28:32;5.47;;;2.00;;
16579;SDS011;8402;51.466;6.806;2023-03-16T13:31:17;5.60;;;2.10;;
16579;SDS011;8402;51.466;6.806;2023-03-16T13:33:50;2.80;;;1.60;;
16579;SDS011;8402;51.466;6.806;2023-03-16T13:36:26;6.13;;;2.83;;
16579;SDS011;8402;51.466;6.806;2023-03-16T13:39:01;4.43;;;2.30;;
16579;SDS011;8402;51.466;6.806;2023-03-16T13:41:37;5.57;;;1.90;;
16579;SDS011;8402;51.466;6.806;2023-03-16T13:44:11;3.00;;;1.90;;
16579;SDS011;8402;51.466;6.806;2023-03-16T13:46:46;3.80;;;2.07;;
16579;SDS011;8402;51.466;6.806;2023-03-16T13:49:17;3.00;;;1.70;;
16579;SDS011;8402;51.466;6.806;2023-03-16T13:51:47;8.07;;;1.70;;
16579;SDS011;8402;51.466;6.806;2023-03-16T13:54:20;3.13;;;2.00;;
16579;SDS011;8402;51.466;6.806;2023-03-16T13:56:54;3.30;;;1.80;;
16579;SDS011;8402;51.466;6.806;2023-03-16T13:59:26;4.60;;;2.00;;
16579;SDS011;8402;51.466;6.806;2023-03-16T14:02:02;1.97;;;1.40;;
16579;SDS011;8402;51.466;6.806;2023-03-16T14:04:44;4.40;;;2.10;;
16579;SDS011;8402;51.466;6.806;2023-03-16T14:07:15;4.83;;;2.50;;
16579;SDS011;8402;51.466;6.806;2023-03-16T14:09:46;8.27;;;2.40;;
16579;SDS011;8402;51.466;6.806;2023-03-16T14:12:18;3.70;;;2.07;;
16579;SDS011;8402;51.466;6.806;2023-03-16T14:14:49;3.37;;;1.90;;
16579;SDS011;8402;51.466;6.806;2023-03-16T14:17:27;3.97;;;1.60;;
16579;SDS011;8402;51.466;6.806;2023-03-16T14:19:58;3.47;;;1.33;;
16579;SDS011;8402;51.466;6.806;2023-03-16T14:22:30;3.10;;;1.67;;
16579;SDS011;8402;51.466;6.806;2023-03-16T14:25:03;4.17;;;1.70;;
16579;SDS011;8402;51.466;6.806;2023-03-16T14:27:41;3.63;;;1.70;;
16579;SDS011;8402;51.466;6.806;2023-03-16T14:30:14;5.27;;;2.23;;
16579;SDS011;8402;51.466;6.806;2023-03-16T14:32:56;3.93;;;1.87;;
16579;SDS011;8402;51.466;6.806;2023-03-16T14:35:29;6.83;;;1.60;;
16579;SDS011;8402;51.466;6.806;2023-03-16T14:40:52;1.57;;;1.10;;
16579;SDS011;8402;51.466;6.806;2023-03-16T14:43:26;3.30;;;1.40;;
16579;SDS011;8402;51.466;6.806;2023-03-16T14:45:59;3.70;;;2.00;;
16579;SDS011;8402;51.466;6.806;2023-03-16T14:48:32;5.57;;;2.17;;
16579;SDS011;8402;51.466;6.806;2023-03-16T14:51:03;4.47;;;1.90;;
16579;SDS011;8402;51.466;6.806;2023-03-16T14:53:36;4.63;;;2.00;;
16579;SDS011;8402;51.466;6.806;2023-03-16T14:56:08;5.00;;;2.50;;
16579;SDS011;8402;51.466;6.806;2023-03-16T14:58:43;5.70;;;2.70;;
16579;SDS011;8402;51.466;6.806;2023-03-16T15:01:13;3.20;;;1.70;;
16579;SDS011;8402;51.466;6.806;2023-03-16T15:03:48;3.43;;;1.60;;
16579;SDS011;8402;51.466;6.806;2023-03-16T15:06:18;4.57;;;1.70;;
16579;SDS011;8402;51.466;6.806;2023-03-16T15:08:49;5.37;;;1.70;;
16579;SDS011;8402;51.466;6.806;2023-03-16T15:11:23;3.80;;;1.60;;
16579;SDS011;8402;51.466;6.806;2023-03-16T15:13:57;2.53;;;0.90;;
16579;SDS011;8402;51.466;6.806;2023-03-16T15:16:40;3.90;;;1.53;;
16579;SDS011;8402;51.466;6.806;2023-03-16T15:19:13;2.33;;;1.43;;
16579;SDS011;8402;51.466;6.806;2023-03-16T15:21:42;4.73;;;1.43;;
16579;SDS011;8402;51.466;6.806;2023-03-16T15:24:12;2.47;;;1.57;;
16579;SDS011;8402;51.466;6.806;2023-03-16T15:26:42;4.17;;;1.30;;
16579;SDS011;8402;51.466;6.806;2023-03-16T15:29:12;1.97;;;1.40;;
16579;SDS011;8402;51.466;6.806;2023-03-16T15:31:47;3.30;;;1.60;;
16579;SDS011;8402;51.466;6.806;2023-03-16T15:34:22;2.60;;;1.57;;
16579;SDS011;8402;51.466;6.806;2023-03-16T15:36:52;2.73;;;1.97;;
16579;SDS011;8402;51.466;6.806;2023-03-16T15:39:23;2.77;;;1.60;;
16579;SDS011;8402;51.466;6.806;2023-03-16T15:41:54;3.90;;;1.80;;
16579;SDS011;8402;51.466;6.806;2023-03-16T15:44:24;2.57;;;1.67;;
16579;SDS011;8402;51.466;6.806;2023-03-16T15:46:54;3.07;;;1.50;;